Time;durP1;ratioP1;P1;durP2;ratioP2;P2;SDS_P1;SDS_P2;PMS_P1;PMS_P2;Temp;Humidity;BMP_temperature;BMP_pressure;BME280_temperature;BME280_humidity;BME280_pressure;Samples;Min_cycle;Max_cycle;Signal;HPM_P1;HPM_P2
2021/03/26 00:02:12;;;;;;;14.25;8.40;;;9.10;58.10;;;;;;4976763;29;20201;-81
2021/03/26 00:04:39;;;;;;;12.68;8.63;;;9.00;58.50;;;;;;4976672;29;20229;-82
2021/03/26 00:07:06;;;;;;;12.60;9.02;;;9.00;58.80;;;;;;4976302;28;20217;-79
2021/03/26 00:09:36;;;;;;;12.98;8.13;;;8.90;58.70;;;;;;4966495;28;20230;-80
2021/03/26 00:12:06;;;;;;;12.23;8.45;;;8.80;58.60;;;;;;4961525;29;20797;-83
2021/03/26 00:14:33;;;;;;;10.95;8.25;;;8.80;59.20;;;;;;4966903;29;20201;-81
2021/03/26 00:17:00;;;;;;;11.05;8.55;;;8.80;59.70;;;;;;4959592;29;20206;-81
2021/03/26 00:19:26;;;;;;;13.18;9.10;;;8.70;60.20;;;;;;4969688;28;20229;-82
2021/03/26 00:21:52;;;;;;;16.10;9.05;;;8.70;60.70;;;;;;4974539;29;20202;-80
2021/03/26 00:24:19;;;;;;;13.63;8.75;;;8.70;60.90;;;;;;4976343;28;20201;-80
2021/03/26 00:26:46;;;;;;;10.35;8.25;;;8.60;61.10;;;;;;4968029;29;20210;-81
2021/03/26 00:29:13;;;;;;;12.27;8.32;;;8.60;61.60;;;;;;4957259;28;20304;-81
2021/03/26 00:31:40;;;;;;;15.15;9.48;;;8.60;61.60;;;;;;4957758;28;20546;-81
2021/03/26 00:34:07;;;;;;;14.50;8.02;;;8.60;62.20;;;;;;4961571;29;20257;-82
2021/03/26 00:36:34;;;;;;;11.30;8.90;;;8.50;62.30;;;;;;4960914;29;20304;-82
2021/03/26 00:39:01;;;;;;;11.95;8.18;;;8.50;62.80;;;;;;4961093;28;20747;-82
2021/03/26 00:41:28;;;;;;;11.07;8.40;;;8.50;62.60;;;;;;4961826;29;20626;-82
2021/03/26 00:43:55;;;;;;;13.52;8.85;;;8.40;62.80;;;;;;4961230;29;20217;-81
2021/03/26 00:46:23;;;;;;;17.05;9.70;;;8.50;63.10;;;;;;4962347;29;20220;-81
2021/03/26 00:48:50;;;;;;;10.82;8.02;;;8.40;63.00;;;;;;4972016;28;20233;-82
2021/03/26 00:51:16;;;;;;;15.48;8.77;;;8.40;62.80;;;;;;4968773;29;20220;-82
2021/03/26 00:53:43;;;;;;;11.13;8.20;;;8.30;63.20;;;;;;4960109;29;20238;-83
2021/03/26 00:56:09;;;;;;;11.25;8.20;;;8.30;63.50;;;;;;4978542;28;20214;-81
2021/03/26 00:58:36;;;;;;;13.90;9.25;;;8.30;63.90;;;;;;4959327;28;20316;-81
2021/03/26 01:01:03;;;;;;;13.10;8.50;;;8.30;63.70;;;;;;4962014;29;20210;-82
2021/03/26 01:03:31;;;;;;;10.27;8.23;;;8.30;63.90;;;;;;4964120;29;20241;-81
2021/03/26 01:06:01;;;;;;;13.70;8.23;;;8.30;63.70;;;;;;4966849;29;20541;-83
2021/03/26 01:08:28;;;;;;;13.00;9.35;;;8.30;63.90;;;;;;4969722;28;20214;-82
2021/03/26 01:10:59;;;;;;;12.20;9.25;;;8.40;64.10;;;;;;4970415;29;20237;-82
2021/03/26 01:13:26;;;;;;;12.18;9.07;;;8.40;63.70;;;;;;4967920;29;20257;-83
2021/03/26 01:15:52;;;;;;;12.85;9.10;;;8.40;63.70;;;;;;4964187;29;20354;-82
2021/03/26 01:18:28;;;;;;;14.68;9.10;;;8.30;63.70;;;;;;4960705;29;20214;-83
2021/03/26 01:20:55;;;;;;;10.50;7.88;;;8.40;63.30;;;;;;4960823;29;20295;-82
2021/03/26 01:23:23;;;;;;;14.90;8.63;;;8.40;62.90;;;;;;4959662;29;20241;-82
2021/03/26 01:25:50;;;;;;;15.18;8.85;;;8.40;63.30;;;;;;4960557;29;20300;-83
2021/03/26 01:28:18;;;;;;;13.15;8.57;;;8.40;63.30;;;;;;4960473;29;20645;-82
2021/03/26 01:30:45;;;;;;;11.80;8.23;;;8.40;63.50;;;;;;4960638;29;20258;-81
2021/03/26 01:33:12;;;;;;;11.93;8.73;;;8.40;63.30;;;;;;4974201;29;20213;-82
2021/03/26 01:35:40;;;;;;;13.20;9.05;;;8.40;63.10;;;;;;4975394;29;20214;-81
2021/03/26 01:38:08;;;;;;;12.05;8.10;;;8.50;62.80;;;;;;4962916;29;20217;-80
2021/03/26 01:40:40;;;;;;;14.40;9.65;;;8.50;62.50;;;;;;4961844;29;20229;-82
2021/03/26 01:43:09;;;;;;;11.18;8.30;;;8.40;62.60;;;;;;4958801;28;20550;-81
2021/03/26 01:45:35;;;;;;;16.05;8.90;;;8.40;62.80;;;;;;4960184;29;20245;-81
2021/03/26 01:48:02;;;;;;;11.82;7.93;;;8.40;62.80;;;;;;4960109;29;20232;-80
2021/03/26 01:50:31;;;;;;;13.45;8.25;;;8.30;62.70;;;;;;4959093;29;20253;-81
2021/03/26 01:52:59;;;;;;;15.88;8.85;;;8.30;63.10;;;;;;4959522;29;20238;-81
2021/03/26 01:55:28;;;;;;;12.25;8.63;;;8.20;63.80;;;;;;4959045;29;20213;-81
2021/03/26 01:57:55;;;;;;;14.23;7.90;;;8.10;63.90;;;;;;4958365;29;20297;-82
2021/03/26 02:00:27;;;;;;;13.88;9.48;;;8.00;64.60;;;;;;4967779;29;20233;-82
2021/03/26 02:02:54;;;;;;;11.77;7.20;;;7.90;65.00;;;;;;4966001;29;20209;-81
2021/03/26 02:05:25;;;;;;;11.05;8.48;;;7.90;65.60;;;;;;4960217;29;20237;-81
2021/03/26 02:07:52;;;;;;;9.70;7.75;;;7.80;66.00;;;;;;4960003;29;20799;-80
2021/03/26 02:10:21;;;;;;;10.05;8.30;;;7.80;66.70;;;;;;4960126;29;20226;-81
2021/03/26 02:12:48;;;;;;;10.93;8.45;;;7.70;66.60;;;;;;4965766;29;20281;-82
2021/03/26 02:15:18;;;;;;;10.95;8.57;;;7.70;66.60;;;;;;4968974;29;20210;-81
2021/03/26 02:17:45;;;;;;;11.48;8.00;;;7.60;66.50;;;;;;4971231;29;20206;-81
2021/03/26 02:20:25;;;;;;;14.23;8.93;;;7.60;67.30;;;;;;4965234;29;20300;-80
2021/03/26 02:22:52;;;;;;;13.60;8.60;;;7.60;67.60;;;;;;4960126;29;20272;-81
2021/03/26 02:25:23;;;;;;;12.32;8.35;;;7.60;67.50;;;;;;4965232;29;20213;-80
2021/03/26 02:27:49;;;;;;;11.23;8.88;;;7.60;67.40;;;;;;4967760;29;20261;-82
2021/03/26 02:30:22;;;;;;;9.27;7.72;;;7.60;67.60;;;;;;4965368;29;20226;-81
2021/03/26 02:32:49;;;;;;;13.55;8.82;;;7.50;67.50;;;;;;4961852;29;20198;-81
2021/03/26 02:35:23;;;;;;;15.70;8.00;;;7.50;67.80;;;;;;4964463;29;20201;-82
2021/03/26 02:37:53;;;;;;;14.55;8.85;;;7.40;68.30;;;;;;4966481;29;20693;-82
2021/03/26 02:40:26;;;;;;;11.40;8.00;;;7.30;68.50;;;;;;4967573;29;20249;-82
2021/03/26 02:43:01;;;;;;;13.55;9.10;;;7.20;68.90;;;;;;4967341;29;20277;-81
2021/03/26 02:45:32;;;;;;;10.05;8.45;;;7.10;69.60;;;;;;4967657;29;20277;-83
2021/03/26 02:48:00;;;;;;;11.07;8.30;;;7.00;70.50;;;;;;4965769;29;20705;-81
2021/03/26 02:50:37;;;;;;;12.57;8.38;;;7.00;72.10;;;;;;4966588;29;20237;-80
2021/03/26 02:53:09;;;;;;;10.30;8.38;;;6.90;72.00;;;;;;4966908;29;20213;-81
2021/03/26 02:55:41;;;;;;;14.18;9.00;;;6.90;72.50;;;;;;4967451;28;20222;-80
2021/03/26 02:58:14;;;;;;;9.55;8.18;;;6.80;73.00;;;;;;4967089;29;20218;-82
2021/03/26 03:00:44;;;;;;;12.13;8.80;;;6.80;73.50;;;;;;4958000;29;20273;-81
2021/03/26 03:03:14;;;;;;;12.32;8.98;;;6.80;73.40;;;;;;4957913;29;20580;-82
2021/03/26 03:05:44;;;;;;;11.13;8.70;;;6.80;73.90;;;;;;4956990;29;20293;-82
2021/03/26 03:08:15;;;;;;;12.15;8.77;;;6.80;74.50;;;;;;4957262;29;20204;-82
2021/03/26 03:10:48;;;;;;;13.60;9.05;;;6.80;74.50;;;;;;4957207;29;20237;-82
2021/03/26 03:13:18;;;;;;;15.02;8.77;;;6.70;74.50;;;;;;4957072;29;20213;-82
2021/03/26 03:15:48;;;;;;;15.02;9.00;;;6.70;74.50;;;;;;4957039;29;20244;-81
2021/03/26 03:18:21;;;;;;;13.18;8.57;;;6.70;74.70;;;;;;4958022;29;20234;-82
2021/03/26 03:20:57;;;;;;;11.63;8.60;;;6.70;74.80;;;;;;4960875;29;20241;-82
2021/03/26 03:23:28;;;;;;;11.07;9.02;;;6.60;74.70;;;;;;4972299;29;20398;-82
2021/03/26 03:25:59;;;;;;;12.48;9.02;;;6.50;75.40;;;;;;4971485;29;20214;-82
2021/03/26 03:28:36;;;;;;;16.77;9.10;;;6.50;75.80;;;;;;4958327;29;20285;-82
2021/03/26 03:31:11;;;;;;;14.88;8.98;;;6.50;76.90;;;;;;4956831;29;20620;-81
2021/03/26 03:33:44;;;;;;;13.82;8.63;;;6.40;76.10;;;;;;4961194;29;20349;-81
2021/03/26 03:36:15;;;;;;;10.90;7.95;;;6.30;76.10;;;;;;4957955;29;20468;-82
2021/03/26 03:38:54;;;;;;;13.48;8.35;;;6.30;76.50;;;;;;4956746;29;20259;-81
2021/03/26 03:41:27;;;;;;;15.38;8.75;;;6.20;76.90;;;;;;4957075;29;20244;-82
2021/03/26 03:44:01;;;;;;;13.02;8.30;;;6.10;77.50;;;;;;4957233;29;20819;-81
2021/03/26 03:46:32;;;;;;;11.77;8.10;;;6.10;78.10;;;;;;4957011;29;20206;-81
2021/03/26 03:49:05;;;;;;;10.07;8.25;;;6.00;77.80;;;;;;4959952;29;20261;-82
2021/03/26 03:51:38;;;;;;;11.23;8.05;;;5.90;77.20;;;;;;4967722;29;20198;-83
2021/03/26 03:54:12;;;;;;;16.45;10.10;;;5.80;77.90;;;;;;4961481;29;20654;-80
2021/03/26 03:56:42;;;;;;;14.93;10.15;;;5.80;79.50;;;;;;4956079;29;20217;-82
2021/03/26 03:59:14;;;;;;;15.65;9.65;;;5.80;80.70;;;;;;4956587;29;20322;-81
2021/03/26 04:01:46;;;;;;;16.85;10.02;;;5.80;81.00;;;;;;4968202;29;20221;-81
2021/03/26 04:04:16;;;;;;;14.18;8.82;;;5.80;81.20;;;;;;4964655;28;20241;-81
2021/03/26 04:06:48;;;;;;;12.57;9.65;;;5.80;81.70;;;;;;4957830;28;20242;-81
2021/03/26 04:09:19;;;;;;;14.48;8.57;;;5.80;82.10;;;;;;4961085;29;20230;-81
2021/03/26 04:11:52;;;;;;;13.00;8.40;;;5.70;82.00;;;;;;4962613;29;20293;-81
2021/03/26 04:14:23;;;;;;;15.15;9.48;;;5.70;82.00;;;;;;4963146;29;20213;-81
2021/03/26 04:16:55;;;;;;;12.02;9.00;;;5.70;82.00;;;;;;4968797;29;20904;-81
2021/03/26 04:19:25;;;;;;;10.10;8.50;;;5.70;82.70;;;;;;4961803;29;20234;-80
2021/03/26 04:21:56;;;;;;;13.35;9.93;;;5.70;82.00;;;;;;4961176;29;20194;-81
2021/03/26 04:24:26;;;;;;;14.98;8.85;;;5.60;81.90;;;;;;4960889;29;20190;-81
2021/03/26 04:26:59;;;;;;;12.25;9.10;;;5.60;82.60;;;;;;4960766;29;20190;-81
2021/03/26 04:29:31;;;;;;;14.63;9.88;;;5.60;82.60;;;;;;4965757;29;20314;-81
2021/03/26 04:32:01;;;;;;;14.05;9.27;;;5.50;82.80;;;;;;4966613;29;20202;-81
2021/03/26 04:34:28;;;;;;;17.33;10.70;;;5.40;82.60;;;;;;4960350;29;20858;-82
2021/03/26 04:37:01;;;;;;;14.20;8.50;;;5.30;84.10;;;;;;4960427;29;20302;-81
2021/03/26 04:39:34;;;;;;;14.85;9.68;;;5.30;85.20;;;;;;4960301;29;20260;-80
2021/03/26 04:49:50;;;;;;;22.67;10.82;;;5.30;86.30;;;;;;5984478;23;20276;31
2021/03/26 04:52:22;;;;;;;12.40;9.20;;;5.30;86.80;;;;;;4927985;29;20234;-80
2021/03/26 04:54:55;;;;;;;14.77;9.82;;;5.20;86.30;;;;;;4930783;29;20539;-80
2021/03/26 04:57:25;;;;;;;20.52;9.60;;;5.20;87.10;;;;;;4933288;29;20266;-81
2021/03/26 05:00:01;;;;;;;14.38;9.55;;;5.20;87.00;;;;;;4936826;29;20238;-82
2021/03/26 05:02:31;;;;;;;12.90;9.43;;;5.10;87.10;;;;;;4956134;29;20623;-82
2021/03/26 05:05:00;;;;;;;13.93;9.85;;;5.10;87.50;;;;;;4953206;29;20202;-82
2021/03/26 05:07:32;;;;;;;14.45;9.98;;;5.10;88.10;;;;;;4952964;29;20218;-80
2021/03/26 05:10:01;;;;;;;10.45;9.13;;;5.10;88.30;;;;;;4952340;29;20218;-81
2021/03/26 05:12:32;;;;;;;13.48;9.88;;;5.10;88.00;;;;;;4951714;29;20230;-81
2021/03/26 05:15:03;;;;;;;17.58;9.27;;;5.00;87.80;;;;;;4951700;29;20218;-81
2021/03/26 05:17:36;;;;;;;16.70;10.25;;;4.90;88.20;;;;;;4952757;29;20282;-81
2021/03/26 05:20:10;;;;;;;14.65;9.27;;;4.90;89.00;;;;;;4954823;29;20219;-81
2021/03/26 05:22:44;;;;;;;12.52;8.88;;;4.90;89.50;;;;;;4950052;29;20261;-82
2021/03/26 05:25:15;;;;;;;14.68;10.32;;;4.90;89.50;;;;;;4945054;29;20230;-81
2021/03/26 05:27:42;;;;;;;13.50;8.85;;;4.90;89.50;;;;;;4943133;29;20226;-81
2021/03/26 05:30:11;;;;;;;14.93;9.70;;;4.90;89.50;;;;;;4943435;29;20226;-81
2021/03/26 05:32:44;;;;;;;11.95;8.70;;;4.90;89.50;;;;;;4944122;29;20292;-81
2021/03/26 05:35:23;;;;;;;12.77;9.27;;;4.90;89.50;;;;;;4945826;29;20225;-81
2021/03/26 05:37:58;;;;;;;15.15;9.95;;;5.00;88.90;;;;;;4946370;29;20218;-81
2021/03/26 05:40:51;;;;;;;10.82;9.07;;;5.00;88.40;;;;;;4952307;29;20257;-82
2021/03/26 05:43:33;;;;;;;14.15;9.43;;;5.00;88.00;;;;;;4946741;29;20219;-82
2021/03/26 05:46:12;;;;;;;10.85;8.70;;;5.10;88.00;;;;;;4947926;29;20195;-82
2021/03/26 05:48:53;;;;;;;15.18;9.00;;;5.20;87.10;;;;;;4947272;29;20675;-82
2021/03/26 05:51:54;;;;;;;12.13;8.30;;;5.20;85.80;;;;;;4946248;29;20234;-81
2021/03/26 05:54:33;;;;;;;14.13;8.75;;;5.30;85.50;;;;;;4924206;29;20228;-81
2021/03/26 05:57:09;;;;;;;14.27;9.18;;;5.50;85.80;;;;;;4945115;29;20675;-81
2021/03/26 05:59:48;;;;;;;15.80;8.70;;;5.60;84.60;;;;;;4942204;29;20226;-81
2021/03/26 06:02:55;;;;;;;13.95;8.82;;;5.70;83.70;;;;;;4941035;29;20207;-81
2021/03/26 06:05:55;;;;;;;18.60;9.35;;;5.90;82.20;;;;;;4950583;29;20299;-81
2021/03/26 06:08:57;;;;;;;13.35;9.80;;;6.10;82.30;;;;;;4944657;29;20206;-82
2021/03/26 06:11:52;;;;;;;12.27;9.02;;;6.20;80.30;;;;;;4944380;29;20234;-82
2021/03/26 06:14:39;;;;;;;13.60;9.18;;;6.40;78.90;;;;;;4945200;29;20281;-81
2021/03/26 06:17:30;;;;;;;17.25;9.15;;;6.70;77.90;;;;;;4947308;29;20218;-82
2021/03/26 06:20:20;;;;;;;16.05;9.15;;;6.90;75.40;;;;;;4947504;29;20219;-80
2021/03/26 06:23:25;;;;;;;11.20;9.00;;;7.20;74.30;;;;;;4951441;29;20214;-82
2021/03/26 06:26:04;;;;;;;17.30;9.32;;;7.50;71.90;;;;;;4939935;29;20206;-82
2021/03/26 06:28:40;;;;;;;11.63;8.98;;;7.80;68.60;;;;;;4959969;29;20179;-80
2021/03/26 06:31:38;;;;;;;12.02;10.10;;;8.00;66.90;;;;;;4958365;29;20227;-80
2021/03/26 06:34:40;;;;;;;13.25;8.60;;;8.20;64.50;;;;;;4942761;29;20195;-81
2021/03/26 06:37:36;;;;;;;12.52;8.50;;;8.30;62.70;;;;;;4946383;29;20602;-82
2021/03/26 06:40:36;;;;;;;13.82;8.80;;;8.10;62.10;;;;;;4936590;29;20286;-82
2021/03/26 06:43:23;;;;;;;12.35;8.38;;;8.10;62.50;;;;;;4949620;29;20703;-81
2021/03/26 06:46:19;;;;;;;12.20;8.20;;;8.30;62.30;;;;;;4951934;29;20238;-81
2021/03/26 06:49:02;;;;;;;12.05;8.80;;;8.40;61.80;;;;;;4952806;29;20221;-81
2021/03/26 06:51:45;;;;;;;12.88;8.65;;;8.50;61.10;;;;;;4947075;29;20301;-81
2021/03/26 06:54:31;;;;;;;11.43;8.57;;;8.50;60.30;;;;;;4942654;29;20202;-82
2021/03/26 06:57:22;;;;;;;10.68;8.05;;;8.50;60.00;;;;;;4942740;29;20214;-81
2021/03/26 07:00:19;;;;;;;9.80;8.07;;;8.60;59.30;;;;;;4947281;29;20297;-82
2021/03/26 07:03:11;;;;;;;15.93;8.95;;;8.60;59.10;;;;;;4953046;29;20241;-82
2021/03/26 07:05:57;;;;;;;9.95;7.93;;;8.60;59.50;;;;;;4943702;29;20218;-82
2021/03/26 07:08:37;;;;;;;13.27;8.57;;;8.70;59.80;;;;;;4944143;29;20217;-82
2021/03/26 07:11:27;;;;;;;12.40;8.23;;;8.80;58.60;;;;;;4945198;29;20258;-82
2021/03/26 07:14:30;;;;;;;11.63;7.75;;;8.90;58.70;;;;;;4946193;29;20194;-86
2021/03/26 07:17:28;;;;;;;14.18;8.35;;;9.10;58.50;;;;;;4889362;29;20661;-85
2021/03/26 07:20:41;;;;;;;9.23;7.38;;;9.20;57.10;;;;;;4945876;29;20227;-84
2021/03/26 07:23:39;;;;;;;9.82;8.35;;;9.40;56.70;;;;;;4949459;29;20214;-86
2021/03/26 07:26:23;;;;;;;13.63;9.82;;;9.60;56.20;;;;;;4944963;29;20207;-86
2021/03/26 07:29:00;;;;;;;14.35;8.70;;;9.70;55.10;;;;;;4949893;29;20221;-85
2021/03/26 07:31:36;;;;;;;13.23;9.20;;;9.60;55.90;;;;;;4949014;29;20282;-86
2021/03/26 07:34:19;;;;;;;10.02;8.82;;;9.50;55.30;;;;;;4944587;29;20186;-86
2021/03/26 07:36:57;;;;;;;14.80;9.00;;;9.70;54.70;;;;;;4943100;29;20246;-85
2021/03/26 07:39:42;;;;;;;12.20;8.65;;;9.80;54.00;;;;;;4944592;29;20230;-85
2021/03/26 07:42:31;;;;;;;10.95;7.80;;;9.90;54.00;;;;;;4949773;29;20265;-85
2021/03/26 07:45:15;;;;;;;14.00;8.50;;;10.10;52.20;;;;;;4951495;29;20213;-85
2021/03/26 07:48:22;;;;;;;12.32;8.10;;;10.20;51.40;;;;;;4953917;29;20213;-86
2021/03/26 07:50:57;;;;;;;10.60;8.55;;;10.40;50.70;;;;;;4951618;29;20242;-87
2021/03/26 07:53:54;;;;;;;12.20;8.23;;;10.40;49.60;;;;;;4958517;29;20240;-89
2021/03/26 07:56:41;;;;;;;12.00;8.70;;;10.40;49.60;;;;;;4961882;28;20201;-88
2021/03/26 07:59:20;;;;;;;10.45;8.63;;;10.60;49.70;;;;;;4960618;28;20210;-86
2021/03/26 08:02:17;;;;;;;10.40;8.38;;;10.80;49.70;;;;;;4957176;29;20234;-87
2021/03/26 08:04:48;;;;;;;13.38;8.77;;;11.00;49.30;;;;;;4960803;28;20198;-85
2021/03/26 08:07:58;;;;;;;17.55;10.68;;;11.20;48.20;;;;;;4961286;28;20206;-86
2021/03/26 08:10:34;;;;;;;10.52;8.20;;;11.50;46.60;;;;;;4955934;29;20230;-85
2021/03/26 08:13:26;;;;;;;17.85;9.68;;;11.80;46.10;;;;;;4960121;29;20206;-85
2021/03/26 08:16:32;;;;;;;14.93;9.57;;;12.00;45.20;;;;;;4960862;29;20215;-85
2021/03/26 08:19:09;;;;;;;14.77;9.27;;;11.90;45.10;;;;;;4951627;29;20191;-86
2021/03/26 08:21:46;;;;;;;12.85;7.82;;;12.10;44.70;;;;;;4953529;29;20238;-87
2021/03/26 08:24:55;;;;;;;12.18;8.85;;;12.10;44.20;;;;;;4940236;29;20215;-88
2021/03/26 08:27:32;;;;;;;10.57;9.02;;;11.60;45.10;;;;;;4943106;29;20612;-88
2021/03/26 08:30:21;;;;;;;21.00;9.43;;;11.60;45.60;;;;;;4957629;29;20182;-86
2021/03/26 08:33:01;;;;;;;16.17;9.70;;;11.90;45.10;;;;;;4928055;29;20251;-87
2021/03/26 08:36:03;;;;;;;13.27;9.48;;;11.80;44.80;;;;;;4938223;29;20219;-88
2021/03/26 08:38:40;;;;;;;11.77;9.23;;;12.00;44.90;;;;;;4937831;29;20215;-87
2021/03/26 08:41:13;;;;;;;12.82;9.18;;;11.70;45.20;;;;;;4941884;29;20227;-90
2021/03/26 08:43:42;;;;;;;13.60;9.60;;;11.90;44.50;;;;;;4941298;29;20211;-87
2021/03/26 08:46:19;;;;;;;12.60;9.90;;;12.10;43.60;;;;;;4940103;29;20215;-87
2021/03/26 08:48:54;;;;;;;14.27;9.98;;;11.80;44.30;;;;;;4936802;29;20195;-89
2021/03/26 08:51:47;;;;;;;13.07;9.07;;;11.50;45.20;;;;;;4940166;29;20250;-87
2021/03/26 08:54:30;;;;;;;13.85;9.05;;;11.70;44.30;;;;;;4934569;29;20207;-86
2021/03/26 08:57:10;;;;;;;13.00;9.93;;;12.20;43.50;;;;;;4930022;29;20192;-86
2021/03/26 08:59:45;;;;;;;10.50;8.02;;;12.30;41.60;;;;;;4910236;29;20235;-89
2021/03/26 09:03:00;;;;;;;13.10;9.73;;;12.40;41.70;;;;;;4913021;29;20207;-88
2021/03/26 09:05:47;;;;;;;13.63;9.80;;;12.60;41.90;;;;;;4921886;29;20263;-88
2021/03/26 09:08:43;;;;;;;17.88;8.85;;;12.70;41.20;;;;;;4930546;29;20624;-82
2021/03/26 09:11:32;;;;;;;10.73;8.55;;;12.80;41.10;;;;;;4935589;29;20340;-88
2021/03/26 09:14:18;;;;;;;11.65;9.35;;;12.80;40.70;;;;;;4938033;29;20207;-88
2021/03/26 09:16:53;;;;;;;11.70;9.07;;;13.00;40.30;;;;;;4936144;29;20219;-88
2021/03/26 09:19:29;;;;;;;12.23;9.02;;;12.90;40.30;;;;;;4936389;29;20539;-86
2021/03/26 09:22:06;;;;;;;12.30;8.43;;;12.90;40.10;;;;;;4938521;29;20230;-86
2021/03/26 09:25:01;;;;;;;13.52;9.68;;;13.00;40.10;;;;;;4937150;29;20219;-87
2021/03/26 09:27:35;;;;;;;11.88;9.75;;;13.20;39.60;;;;;;4933328;29;20269;-86
2021/03/26 09:30:14;;;;;;;18.13;10.05;;;13.40;39.60;;;;;;4934850;29;20286;-84
2021/03/26 09:32:48;;;;;;;13.82;9.50;;;13.60;38.90;;;;;;4931946;29;20505;-86
2021/03/26 09:35:19;;;;;;;17.05;9.57;;;13.80;38.30;;;;;;4928659;29;20271;-87
2021/03/26 09:37:51;;;;;;;11.40;9.00;;;13.90;37.60;;;;;;4931833;29;20697;-87
2021/03/26 09:40:34;;;;;;;11.98;9.13;;;13.90;37.60;;;;;;4935067;29;20235;-87
2021/03/26 09:43:21;;;;;;;13.57;9.60;;;14.10;37.00;;;;;;4932474;29;20218;-87
2021/03/26 09:45:54;;;;;;;15.75;9.98;;;14.20;37.00;;;;;;4930596;29;20230;-88
2021/03/26 09:48:54;;;;;;;10.68;8.70;;;14.20;36.20;;;;;;4931219;29;20199;-85
2021/03/26 09:51:28;;;;;;;11.63;9.45;;;14.00;36.80;;;;;;4931296;29;20240;-89
2021/03/26 09:54:12;;;;;;;12.07;8.85;;;14.20;37.10;;;;;;4929758;29;20234;-88
2021/03/26 09:56:43;;;;;;;14.90;9.43;;;14.40;36.30;;;;;;4936544;29;20207;-86
2021/03/26 09:59:17;;;;;;;13.77;10.00;;;14.10;36.80;;;;;;4938351;29;20227;-85
2021/03/26 10:01:50;;;;;;;12.25;9.35;;;14.20;36.80;;;;;;4939062;29;20254;-84
2021/03/26 10:04:23;;;;;;;11.80;9.15;;;14.50;36.40;;;;;;4936670;29;20207;-85
2021/03/26 10:07:02;;;;;;;17.08;8.77;;;14.70;35.10;;;;;;4979195;23;20274;-87
2021/03/26 10:09:38;;;;;;;14.53;8.80;;;14.80;34.50;;;;;;4931349;29;20241;-85
2021/03/26 10:12:13;;;;;;;12.32;9.45;;;14.90;34.00;;;;;;4932798;29;20441;-86
2021/03/26 10:14:46;;;;;;;13.50;8.77;;;15.00;34.10;;;;;;4935373;29;20219;-85
2021/03/26 10:17:49;;;;;;;14.32;8.55;;;15.10;34.20;;;;;;4936515;29;20233;-85
2021/03/26 10:20:32;;;;;;;10.88;8.63;;;15.20;34.30;;;;;;4972679;23;20252;-83
2021/03/26 10:23:06;;;;;;;9.55;8.02;;;15.30;34.40;;;;;;4959602;28;20215;-85
2021/03/26 10:25:37;;;;;;;11.60;9.20;;;15.20;34.30;;;;;;4939296;29;20206;-87
2021/03/26 10:28:21;;;;;;;9.82;8.82;;;15.50;34.60;;;;;;4947291;29;20229;-88
2021/03/26 10:30:53;;;;;;;11.70;8.40;;;15.60;33.70;;;;;;4957212;29;20210;-86
2021/03/26 10:33:23;;;;;;;9.35;8.35;;;15.60;33.60;;;;;;4956774;29;20218;-87
2021/03/26 10:36:01;;;;;;;11.50;9.20;;;15.10;34.20;;;;;;4939396;29;20266;-87
2021/03/26 10:38:49;;;;;;;9.77;8.50;;;15.20;34.30;;;;;;4937560;29;20207;-87
2021/03/26 10:41:31;;;;;;;10.75;8.27;;;15.40;34.50;;;;;;4937020;29;20483;-90
2021/03/26 10:44:10;;;;;;;11.85;9.43;;;15.50;34.60;;;;;;4939144;29;20211;-88
2021/03/26 10:46:40;;;;;;;11.13;9.60;;;15.70;34.60;;;;;;4940099;29;20195;-91
2021/03/26 10:49:13;;;;;;;13.90;10.00;;;15.90;33.30;;;;;;4941089;29;20199;-87
2021/03/26 10:51:49;;;;;;;16.00;10.10;;;16.00;32.10;;;;;;5088005;23;20496;-88
2021/03/26 10:54:29;;;;;;;12.70;10.47;;;16.10;31.90;;;;;;4941366;29;20475;-87
2021/03/26 10:57:13;;;;;;;16.43;9.87;;;16.10;32.50;;;;;;4940449;29;20455;-86
2021/03/26 10:59:46;;;;;;;12.73;9.27;;;16.10;31.70;;;;;;4938227;29;20475;-92
2021/03/26 11:02:44;;;;;;;16.40;10.57;;;16.00;31.80;;;;;;4940512;29;20517;-90
2021/03/26 11:05:25;;;;;;;15.93;10.07;;;16.00;31.20;;;;;;4926913;29;20462;-93
2021/03/26 11:08:18;;;;;;;13.57;9.93;;;16.10;30.10;;;;;;4939782;29;20447;-90
2021/03/26 11:10:52;;;;;;;16.13;11.27;;;16.20;30.10;;;;;;4939754;29;20627;-91
2021/03/26 11:13:27;;;;;;;12.37;10.03;;;16.40;30.30;;;;;;4933209;29;20428;-88
2021/03/26 11:15:58;;;;;;;12.10;10.37;;;16.50;29.80;;;;;;4920725;29;20426;-88
2021/03/26 11:18:31;;;;;;;11.93;9.73;;;16.40;30.00;;;;;;4928434;29;20490;-91
2021/03/26 11:21:00;;;;;;;11.57;9.37;;;16.30;29.80;;;;;;4939719;29;20559;-87
2021/03/26 11:23:29;;;;;;;9.23;7.43;;;16.30;29.20;;;;;;4933308;29;20425;-89
2021/03/26 11:26:11;;;;;;;15.10;9.20;;;16.40;27.40;;;;;;4920603;29;20431;-85
2021/03/26 11:28:42;;;;;;;13.00;9.50;;;16.50;27.70;;;;;;4927798;29;20418;-88
2021/03/26 11:31:21;;;;;;;9.80;8.53;;;16.50;28.20;;;;;;4932790;29;20446;-87
2021/03/26 11:34:14;;;;;;;11.53;9.03;;;16.50;29.00;;;;;;4931275;29;20422;-87
2021/03/26 11:37:09;;;;;;;12.63;9.00;;;16.60;28.90;;;;;;4930910;29;20917;-85
2021/03/26 11:39:42;;;;;;;12.90;10.50;;;16.70;28.80;;;;;;4931353;29;20469;-85
2021/03/26 11:42:32;;;;;;;12.93;11.17;;;16.70;29.30;;;;;;4935651;29;20417;-88
2021/03/26 11:45:02;;;;;;;15.57;10.30;;;16.50;29.30;;;;;;4923230;29;20423;-85
2021/03/26 11:47:37;;;;;;;12.60;9.20;;;16.40;29.60;;;;;;4925409;29;20471;-85
2021/03/26 11:50:17;;;;;;;11.43;9.10;;;16.50;30.10;;;;;;4940388;29;20509;-91
2021/03/26 11:52:55;;;;;;;13.70;10.10;;;16.60;28.80;;;;;;5167584;23;20533;-86
2021/03/26 11:55:29;;;;;;;16.83;9.87;;;16.50;28.90;;;;;;4949173;29;20533;-88
2021/03/26 11:58:03;;;;;;;11.07;8.17;;;16.50;28.40;;;;;;4947965;29;20451;-87
2021/03/26 12:00:32;;;;;;;12.67;8.47;;;16.60;28.50;;;;;;4947045;29;20490;-87
2021/03/26 12:03:06;;;;;;;12.23;8.60;;;16.80;28.50;;;;;;4953926;29;20438;-85
2021/03/26 12:06:02;;;;;;;16.47;8.53;;;17.00;28.00;;;;;;4957522;28;20438;-90
2021/03/26 12:08:34;;;;;;;11.10;9.13;;;17.20;26.90;;;;;;4957160;28;20506;-88
2021/03/26 12:11:06;;;;;;;10.00;8.27;;;17.00;26.70;;;;;;4956643;29;20429;-88
2021/03/26 12:13:38;;;;;;;14.67;8.80;;;16.80;27.50;;;;;;4953726;29;20496;-88
2021/03/26 12:16:13;;;;;;;11.77;8.17;;;17.00;27.30;;;;;;4955149;29;20485;-86
2021/03/26 12:18:47;;;;;;;11.80;7.97;;;17.20;26.90;;;;;;4954326;29;20442;-87
2021/03/26 12:21:36;;;;;;;9.70;8.70;;;17.20;26.90;;;;;;4952784;29;20490;-87
2021/03/26 12:24:17;;;;;;;9.90;8.30;;;17.20;26.90;;;;;;4958181;28;20416;-86
2021/03/26 12:26:56;;;;;;;14.43;9.27;;;16.90;26.90;;;;;;4957527;28;20451;-86
2021/03/26 12:29:57;;;;;;;9.50;8.47;;;17.10;26.80;;;;;;4957271;29;20437;-87
2021/03/26 12:32:31;;;;;;;9.17;7.53;;;17.30;26.90;;;;;;4955722;29;20466;-84
2021/03/26 12:35:27;;;;;;;10.77;7.80;;;17.50;27.20;;;;;;4962146;28;20465;-90
2021/03/26 12:38:04;;;;;;;10.80;8.40;;;17.60;27.20;;;;;;4962404;28;20487;-89
2021/03/26 12:41:04;;;;;;;13.23;8.00;;;17.50;27.10;;;;;;4961576;28;20489;-89
2021/03/26 12:43:39;;;;;;;14.80;8.30;;;17.60;27.20;;;;;;4942500;29;20418;-86
2021/03/26 12:46:15;;;;;;;9.33;7.90;;;17.70;26.60;;;;;;4941236;29;20432;-87
2021/03/26 12:48:47;;;;;;;14.23;7.87;;;17.60;27.20;;;;;;4942513;29;20425;-88
2021/03/26 12:51:23;;;;;;;14.23;7.67;;;17.60;27.20;;;;;;4944974;28;20459;-85
2021/03/26 12:53:59;;;;;;;9.43;7.73;;;17.70;27.20;;;;;;4960752;28;20499;-86
2021/03/26 12:56:30;;;;;;;9.67;7.70;;;17.80;26.50;;;;;;4961241;28;20450;-84
2021/03/26 12:59:13;;;;;;;9.60;7.97;;;17.70;27.20;;;;;;4961186;28;20893;-90
2021/03/26 13:01:44;;;;;;;13.80;8.30;;;17.80;26.60;;;;;;4953293;28;20600;-87
2021/03/26 13:04:21;;;;;;;10.93;8.07;;;17.80;26.70;;;;;;4947622;29;20417;-88
2021/03/26 13:06:50;;;;;;;9.33;7.77;;;17.70;26.50;;;;;;4954169;29;20385;-87
2021/03/26 13:09:28;;;;;;;8.67;7.13;;;17.70;26.50;;;;;;4958650;29;20450;-86
2021/03/26 13:12:04;;;;;;;11.33;7.53;;;17.50;27.10;;;;;;4957793;28;20460;-87
2021/03/26 13:14:40;;;;;;;11.40;7.80;;;17.60;27.20;;;;;;4957736;29;20456;-86
2021/03/26 13:17:17;;;;;;;9.23;7.07;;;17.70;26.70;;;;;;4953474;29;20420;-86
2021/03/26 13:19:44;;;;;;;10.00;7.37;;;17.80;25.70;;;;;;4951155;29;20490;-86
2021/03/26 13:22:22;;;;;;;9.00;7.23;;;17.90;25.60;;;;;;4951204;29;20487;-87
2021/03/26 13:25:07;;;;;;;9.00;7.40;;;18.00;25.40;;;;;;4949276;29;20448;-87
2021/03/26 13:27:50;;;;;;;10.77;7.97;;;18.20;25.20;;;;;;4949066;29;20425;-89
2021/03/26 13:30:31;;;;;;;12.20;7.13;;;18.50;24.60;;;;;;4946306;29;20570;-89
2021/03/26 13:33:16;;;;;;;11.90;7.43;;;18.40;24.80;;;;;;4946184;29;20429;-87
2021/03/26 13:35:50;;;;;;;9.63;8.40;;;18.30;25.00;;;;;;4948811;29;20421;-86
2021/03/26 13:38:26;;;;;;;10.83;7.50;;;18.40;24.80;;;;;;4949303;29;20943;-84
2021/03/26 13:40:55;;;;;;;9.80;7.47;;;18.60;24.80;;;;;;4950055;29;20486;-84
2021/03/26 13:43:26;;;;;;;10.83;7.37;;;18.50;25.20;;;;;;4957264;29;20453;-84